createdAt,value
2022-08-11T00:01:30.925Z,1.47
2022-08-11T00:04:22.350Z,1.77
2022-08-11T00:07:11.431Z,1.82
2022-08-11T00:10:00.413Z,1.43
2022-08-11T00:12:55.527Z,1.50
2022-08-11T00:15:45.518Z,1.50
2022-08-11T00:18:41.633Z,1.50
2022-08-11T00:22:02.875Z,2.00
2022-08-11T00:24:53.549Z,1.80
2022-08-11T00:27:42.700Z,1.60
2022-08-11T00:30:39.931Z,1.60
2022-08-11T00:33:41.202Z,1.60
2022-08-11T00:36:42.943Z,1.60
2022-08-11T00:39:36.579Z,1.60
2022-08-11T00:42:40.619Z,2.17
2022-08-11T00:45:33.547Z,1.80
2022-08-11T00:48:40.029Z,2.07
2022-08-11T00:51:56.762Z,2.03
2022-08-11T00:55:30.537Z,2.23
2022-08-11T00:58:56.427Z,2.30
2022-08-11T01:02:11.189Z,2.17
2022-08-11T01:05:28.441Z,2.23
2022-08-11T01:08:57.127Z,2.23
2022-08-11T01:12:21.553Z,2.40
2022-08-11T01:15:57.315Z,2.30
2022-08-11T01:19:21.267Z,2.50
2022-08-11T01:22:53.219Z,2.40
2022-08-11T01:26:20.788Z,2.10
2022-08-11T01:29:41.266Z,2.03
2022-08-11T01:33:14.963Z,2.50
2022-08-11T01:36:42.064Z,2.17
2022-08-11T01:40:11.053Z,1.87
2022-08-11T01:43:48.815Z,2.43
2022-08-11T01:46:45.003Z,1.80
2022-08-11T01:50:09.573Z,2.07
2022-08-11T01:53:04.994Z,2.50
2022-08-11T01:56:05.563Z,2.47
2022-08-11T01:59:04.092Z,2.20
2022-08-11T02:02:12.249Z,2.20
2022-08-11T02:05:20.378Z,1.87
2022-08-11T02:08:21.275Z,2.03
2022-08-11T02:11:35.787Z,2.27
2022-08-11T02:14:39.667Z,2.37
2022-08-11T02:17:46.265Z,2.30
2022-08-11T02:21:03.669Z,2.10
2022-08-11T02:24:04.056Z,2.10
2022-08-11T02:27:02.242Z,3.10
2022-08-11T02:30:06.743Z,4.20
2022-08-11T02:33:24.050Z,3.43
2022-08-11T02:36:21.140Z,2.27
2022-08-11T02:39:13.257Z,2.03
2022-08-11T02:42:33.455Z,2.10
2022-08-11T02:45:54.119Z,2.07
2022-08-11T02:49:14.499Z,2.30
2022-08-11T02:52:08.708Z,1.90
2022-08-11T02:55:10.717Z,2.10
2022-08-11T02:58:31.055Z,1.90
2022-08-11T03:01:39.213Z,2.40
2022-08-11T03:04:38.014Z,2.20
2022-08-11T03:07:32.997Z,2.70
2022-08-11T03:10:26.948Z,2.87
2022-08-11T03:13:39.542Z,3.17
2022-08-11T03:16:46.127Z,2.13
2022-08-11T03:19:46.717Z,2.63
2022-08-11T03:22:45.060Z,2.73
2022-08-11T03:25:39.591Z,2.93
2022-08-11T03:28:34.116Z,3.07
2022-08-11T03:31:27.279Z,2.97
2022-08-11T03:34:22.192Z,3.20
2022-08-11T03:37:46.066Z,2.43
2022-08-11T03:41:49.389Z,2.73
2022-08-11T03:44:37.925Z,2.60
2022-08-11T03:47:38.649Z,2.80
2022-08-11T03:50:45.698Z,2.80
2022-08-11T03:54:01.851Z,2.63
2022-08-11T03:57:35.450Z,2.87
2022-08-11T04:00:52.308Z,3.00
2022-08-11T04:04:08.590Z,2.80
2022-08-11T04:07:36.665Z,3.07
2022-08-11T04:10:53.408Z,2.90
2022-08-11T04:14:34.491Z,3.07
2022-08-11T04:17:58.710Z,2.77
2022-08-11T04:21:20.455Z,3.10
2022-08-11T04:24:50.494Z,3.13
2022-08-11T04:28:28.836Z,2.90
2022-08-11T04:31:49.588Z,3.20
2022-08-11T04:34:51.595Z,3.07
2022-08-11T04:38:17.337Z,3.10
2022-08-11T04:42:04.270Z,2.60
2022-08-11T04:45:47.055Z,2.80
2022-08-11T04:49:24.944Z,3.05
2022-08-11T04:53:09.775Z,2.40
2022-08-11T04:56:41.267Z,2.70
2022-08-11T05:00:07.056Z,2.43
2022-08-11T05:03:43.182Z,2.57
2022-08-11T05:07:05.295Z,2.30
2022-08-11T05:10:13.663Z,2.67
2022-08-11T05:13:18.073Z,2.50
2022-08-11T05:16:30.355Z,2.70
2022-08-11T05:19:40.502Z,3.47
2022-08-11T05:22:48.448Z,2.93
2022-08-11T05:26:44.013Z,3.00
2022-08-11T05:29:57.326Z,2.90
2022-08-11T05:33:13.816Z,2.80
2022-08-11T05:36:11.833Z,2.43
2022-08-11T05:39:36.767Z,2.10
2022-08-11T05:42:44.460Z,2.10
2022-08-11T05:46:02.593Z,2.60
2022-08-11T05:49:11.113Z,2.43
2022-08-11T05:52:21.341Z,2.37
2022-08-11T05:56:01.839Z,1.90
2022-08-11T05:58:51.637Z,2.00
2022-08-11T06:01:41.991Z,2.30
2022-08-11T06:04:31.029Z,2.55
2022-08-11T06:07:27.374Z,2.10
2022-08-11T06:10:25.419Z,2.17
2022-08-11T06:13:17.515Z,2.40
2022-08-11T06:16:07.266Z,2.67
2022-08-11T06:18:56.476Z,2.10
2022-08-11T06:21:48.398Z,2.43
2022-08-11T06:24:41.636Z,2.53
2022-08-11T06:27:34.579Z,2.40
2022-08-11T06:30:35.770Z,2.27
2022-08-11T06:33:36.105Z,2.08
2022-08-11T06:36:39.494Z,2.30
2022-08-11T06:42:34.220Z,2.00
2022-08-11T06:45:30.890Z,2.20
2022-08-11T06:48:23.278Z,2.23
2022-08-11T06:51:12.716Z,2.00
2022-08-11T06:54:04.209Z,2.10
2022-08-11T06:57:29.345Z,2.10
2022-08-11T07:00:28.018Z,2.90
2022-08-11T07:03:19.101Z,1.97
2022-08-11T07:06:23.591Z,1.80
2022-08-11T07:10:00.190Z,1.93
2022-08-11T07:13:44.090Z,1.97
2022-08-11T07:19:38.228Z,2.23
2022-08-11T07:22:48.035Z,2.05
2022-08-11T07:25:57.563Z,1.93
2022-08-11T07:28:58.578Z,1.93
2022-08-11T07:31:51.157Z,1.65
2022-08-11T07:34:45.706Z,1.60
2022-08-11T07:37:35.573Z,1.93
2022-08-11T07:40:24.983Z,2.40
2022-08-11T07:43:14.221Z,1.80
2022-08-11T07:46:23.774Z,1.60
2022-08-11T07:49:31.329Z,1.60
2022-08-11T07:52:29.971Z,2.73
2022-08-11T07:55:21.115Z,2.23
2022-08-11T07:58:52.192Z,1.73
2022-08-11T08:02:01.725Z,1.57
2022-08-11T08:05:09.899Z,2.43
2022-08-11T08:08:17.354Z,2.07
2022-08-11T08:11:27.582Z,1.70
2022-08-11T08:14:36.075Z,1.73
2022-08-11T08:17:43.695Z,1.87
2022-08-11T08:20:35.382Z,1.60
2022-08-11T08:26:39.661Z,1.57
2022-08-11T08:29:49.520Z,2.10
2022-08-11T08:32:41.662Z,1.60
2022-08-11T08:35:32.896Z,1.77
2022-08-11T08:41:09.923Z,1.63
2022-08-11T08:44:36.731Z,1.80
2022-08-11T08:47:41.775Z,1.60
2022-08-11T08:50:52.167Z,1.92
2022-08-11T08:53:49.954Z,1.60
2022-08-11T08:56:44.052Z,1.70
2022-08-11T08:59:47.541Z,1.80
2022-08-11T09:02:38.565Z,1.80
2022-08-11T09:05:26.800Z,1.50
2022-08-11T09:08:17.479Z,1.57
2022-08-11T09:11:24.570Z,1.60
2022-08-11T09:14:15.224Z,1.40
2022-08-11T09:17:03.972Z,1.65
2022-08-11T09:19:59.900Z,1.77
2022-08-11T09:26:36.269Z,1.80
2022-08-11T09:29:26.527Z,1.57
2022-08-11T09:32:15.516Z,1.83
2022-08-11T09:35:06.625Z,1.43
2022-08-11T09:38:14.080Z,2.00
2022-08-11T09:41:05.672Z,1.63
2022-08-11T09:44:12.802Z,1.53
2022-08-11T09:47:01.903Z,1.60
2022-08-11T09:49:52.701Z,1.33
2022-08-11T09:52:57.230Z,1.70
2022-08-11T09:55:53.100Z,1.50
2022-08-11T09:58:45.421Z,1.60
2022-08-11T10:01:37.198Z,1.63
2022-08-11T10:04:32.132Z,1.50
2022-08-11T10:07:21.215Z,1.60
2022-08-11T10:10:11.038Z,1.70
2022-08-11T10:13:03.965Z,1.50
2022-08-11T10:16:00.046Z,1.53
2022-08-11T10:19:06.034Z,1.40
2022-08-11T10:22:13.857Z,1.50
2022-08-11T10:25:20.854Z,1.50
2022-08-11T10:28:28.306Z,1.70
2022-08-11T10:31:47.167Z,1.47
2022-08-11T10:34:51.287Z,1.90
2022-08-11T10:38:08.655Z,1.60
2022-08-11T10:44:13.178Z,2.50
2022-08-11T10:47:22.043Z,1.70
2022-08-11T10:50:31.928Z,2.10
2022-08-11T10:53:39.058Z,1.80
2022-08-11T10:56:47.471Z,1.50
2022-08-11T10:59:36.066Z,1.37
2022-08-11T11:02:26.654Z,1.53
2022-08-11T11:05:24.453Z,1.50
2022-08-11T11:08:30.804Z,1.40
2022-08-11T11:11:21.214Z,2.57
2022-08-11T11:14:30.353Z,1.53
2022-08-11T11:17:44.746Z,1.50
2022-08-11T11:20:46.508Z,1.60
2022-08-11T11:23:46.935Z,1.30
2022-08-11T11:26:49.835Z,1.70
2022-08-11T11:29:54.099Z,1.80
2022-08-11T11:32:56.398Z,1.70
2022-08-11T11:35:57.295Z,1.57
2022-08-11T11:38:45.725Z,1.57
2022-08-11T11:41:34.929Z,1.90
2022-08-11T11:44:24.215Z,1.30
2022-08-11T11:47:14.571Z,2.07
2022-08-11T11:50:05.294Z,1.50
2022-08-11T11:52:55.401Z,1.62
2022-08-11T11:55:44.344Z,1.70
2022-08-11T11:58:51.343Z,1.50
2022-08-11T12:01:40.043Z,1.40
2022-08-11T12:04:29.377Z,1.93
2022-08-11T12:07:36.425Z,1.70
2022-08-11T12:10:27.166Z,1.47
2022-08-11T12:13:35.605Z,1.53
2022-08-11T12:16:33.158Z,1.70
2022-08-11T12:19:28.094Z,1.60
2022-08-11T12:22:35.099Z,1.40
2022-08-11T12:25:42.027Z,1.60
2022-08-11T12:28:31.440Z,1.73
2022-08-11T12:34:24.214Z,1.70
2022-08-11T12:37:14.055Z,1.50
2022-08-11T12:40:49.582Z,2.10
2022-08-11T12:43:56.293Z,1.93
2022-08-11T12:46:48.528Z,1.70
2022-08-11T12:50:00.302Z,1.30
2022-08-11T12:52:56.501Z,1.70
2022-08-11T12:56:07.831Z,1.60
2022-08-11T12:59:17.235Z,1.50
2022-08-11T13:02:23.979Z,1.60
2022-08-11T13:05:17.683Z,1.65
2022-08-11T13:08:07.563Z,1.70
2022-08-11T13:11:16.856Z,1.70
2022-08-11T13:14:06.308Z,1.57
2022-08-11T13:17:13.416Z,1.53
2022-08-11T13:20:02.611Z,1.60
2022-08-11T13:25:41.756Z,1.40
2022-08-11T13:28:31.792Z,1.80
2022-08-11T13:31:20.380Z,1.40
2022-08-11T13:34:09.135Z,1.40
2022-08-11T13:37:00.101Z,1.60
2022-08-11T13:39:48.917Z,1.40
2022-08-11T13:42:38.229Z,1.40
2022-08-11T13:45:27.855Z,1.50
2022-08-11T13:48:17.719Z,1.50
2022-08-11T13:51:24.538Z,1.90
2022-08-11T13:54:26.133Z,1.40
2022-08-11T13:58:08.441Z,1.40
2022-08-11T14:00:28.267Z,1.57
2022-08-11T14:03:20.943Z,2.30
2022-08-11T14:06:10.739Z,1.63
2022-08-11T14:08:59.752Z,1.60
2022-08-11T14:12:23.262Z,1.30
2022-08-11T14:15:19.342Z,1.60
2022-08-11T14:18:13.866Z,1.40
2022-08-11T14:21:24.163Z,1.77
2022-08-11T14:24:13.770Z,1.80
2022-08-11T14:27:05.120Z,1.50
2022-08-11T14:29:54.403Z,1.60
2022-08-11T14:32:52.707Z,1.47
2022-08-11T14:35:44.425Z,1.60
2022-08-11T14:38:39.510Z,1.30
2022-08-11T14:42:10.302Z,1.70
2022-08-11T14:45:16.566Z,2.20
2022-08-11T14:48:10.642Z,1.80
2022-08-11T14:51:00.348Z,1.70
2022-08-11T14:54:09.120Z,1.70
2022-08-11T14:56:59.953Z,1.47
2022-08-11T14:59:50.759Z,1.60
2022-08-11T15:02:58.502Z,1.50
2022-08-11T15:05:56.561Z,1.80
2022-08-11T15:08:55.964Z,2.07
2022-08-11T15:12:03.280Z,2.20
2022-08-11T15:15:09.845Z,1.70
2022-08-11T15:18:02.385Z,2.07
2022-08-11T15:21:09.542Z,1.67
2022-08-11T15:24:15.921Z,1.47
2022-08-11T15:27:25.329Z,1.63
2022-08-11T15:30:34.214Z,2.70
2022-08-11T15:33:44.823Z,5.27
2022-08-11T15:36:50.487Z,5.50
2022-08-11T15:40:08.067Z,2.63
2022-08-11T15:43:40.434Z,1.53
2022-08-11T15:46:33.954Z,1.50
2022-08-11T15:50:10.813Z,1.83
2022-08-11T15:52:46.743Z,1.60
2022-08-11T15:55:36.549Z,1.63
2022-08-11T15:58:45.423Z,2.00
2022-08-11T16:01:54.881Z,1.60
2022-08-11T16:04:45.647Z,1.60
2022-08-11T16:07:36.381Z,1.65
2022-08-11T16:10:29.457Z,1.90
2022-08-11T16:13:42.054Z,2.30
2022-08-11T16:16:30.665Z,1.83
2022-08-11T16:19:20.601Z,1.77
2022-08-11T16:22:11.810Z,1.77
2022-08-11T16:27:04.502Z,1.63
2022-08-11T16:28:14.675Z,3.23
2022-08-11T16:31:08.724Z,4.53
2022-08-11T16:33:57.758Z,5.10
2022-08-11T16:37:04.455Z,5.73
2022-08-11T16:39:53.335Z,3.93
2022-08-11T16:43:00.309Z,3.90
2022-08-11T16:46:31.215Z,4.13
2022-08-11T16:49:34.663Z,3.50
2022-08-11T16:52:24.132Z,2.50
2022-08-11T16:55:12.338Z,2.37
2022-08-11T16:58:39.979Z,2.30
2022-08-11T17:01:29.467Z,2.30
2022-08-11T17:04:51.921Z,2.20
2022-08-11T17:08:01.239Z,2.30
2022-08-11T17:11:11.133Z,4.40
2022-08-11T17:14:01.468Z,3.03
2022-08-11T17:16:52.541Z,5.62
2022-08-11T17:20:42.135Z,4.10
2022-08-11T17:23:14.785Z,3.20
2022-08-11T17:26:04.431Z,2.87
2022-08-11T17:28:57.725Z,2.60
2022-08-11T17:32:04.851Z,6.33
2022-08-11T17:35:15.148Z,4.00
2022-08-11T17:38:06.892Z,3.40
2022-08-11T17:41:23.206Z,3.50
2022-08-11T17:44:46.027Z,10.47
2022-08-11T17:47:53.212Z,21.97
2022-08-11T17:50:42.795Z,31.80
2022-08-11T17:54:02.131Z,28.67
2022-08-11T17:57:21.571Z,20.52
2022-08-11T18:00:12.288Z,23.67
2022-08-11T18:03:18.724Z,20.37
2022-08-11T18:06:12.732Z,18.90
2022-08-11T18:09:21.094Z,16.05
2022-08-11T18:12:29.872Z,15.33
2022-08-11T18:15:36.111Z,14.50
2022-08-11T18:18:42.317Z,13.80
2022-08-11T18:22:12.940Z,11.60
2022-08-11T18:25:19.969Z,9.77
2022-08-11T18:28:29.886Z,8.00
2022-08-11T18:31:39.382Z,5.53
2022-08-11T18:34:50.478Z,5.13
2022-08-11T18:38:01.594Z,5.75
2022-08-11T18:41:09.766Z,3.33
2022-08-11T18:44:20.547Z,3.53
2022-08-11T18:47:31.464Z,3.73
2022-08-11T18:50:40.973Z,3.13
2022-08-11T18:53:57.578Z,3.73
2022-08-11T18:57:06.386Z,2.73
2022-08-11T19:00:15.018Z,2.30
2022-08-11T19:03:25.474Z,2.40
2022-08-11T19:06:39.965Z,2.40
2022-08-11T19:09:48.632Z,2.53
2022-08-11T19:12:55.074Z,2.13
2022-08-11T19:16:03.135Z,2.53
2022-08-11T19:19:14.187Z,2.45
2022-08-11T19:22:22.818Z,2.60
2022-08-11T19:25:32.182Z,2.73
2022-08-11T19:28:40.419Z,2.60
2022-08-11T19:31:48.100Z,1.90
2022-08-11T19:34:55.629Z,2.03
2022-08-11T19:38:03.573Z,2.03
2022-08-11T19:41:12.319Z,2.23
2022-08-11T19:44:22.069Z,2.30
2022-08-11T19:47:29.427Z,2.17
2022-08-11T19:50:37.960Z,2.33
2022-08-11T19:53:47.281Z,2.30
2022-08-11T19:56:55.066Z,2.33
2022-08-11T20:00:02.335Z,2.30
2022-08-11T20:03:11.029Z,2.43
2022-08-11T20:06:21.292Z,2.90
2022-08-11T20:10:04.731Z,3.50
2022-08-11T20:12:57.858Z,4.83
2022-08-11T20:16:04.999Z,5.67
2022-08-11T20:19:13.344Z,6.00
2022-08-11T20:22:20.052Z,4.17
2022-08-11T20:25:29.170Z,3.10
2022-08-11T20:28:37.945Z,4.23
2022-08-11T20:31:44.185Z,3.67
2022-08-11T20:34:54.606Z,3.90
2022-08-11T20:38:02.784Z,3.37
2022-08-11T20:41:09.779Z,3.63
2022-08-11T20:44:17.417Z,3.60
2022-08-11T20:47:26.085Z,3.47
2022-08-11T20:50:34.778Z,3.60
2022-08-11T20:53:42.793Z,2.93
2022-08-11T20:56:52.053Z,2.50
2022-08-11T20:59:59.065Z,2.70
2022-08-11T21:03:07.362Z,2.90
2022-08-11T21:06:14.055Z,2.70
2022-08-11T21:09:58.286Z,3.00
2022-08-11T21:13:26.480Z,2.80
2022-08-11T21:16:31.897Z,3.03
2022-08-11T21:20:01.445Z,2.93
2022-08-11T21:23:24.114Z,2.90
2022-08-11T21:26:34.420Z,2.90
2022-08-11T21:29:41.812Z,2.80
2022-08-11T21:32:49.705Z,2.87
2022-08-11T21:35:56.409Z,2.70
2022-08-11T21:39:02.858Z,3.30
2022-08-11T21:42:10.296Z,2.80
2022-08-11T21:45:17.473Z,3.67
2022-08-11T21:48:25.633Z,3.10
2022-08-11T21:51:32.635Z,3.43
2022-08-11T21:54:39.220Z,3.80
2022-08-11T21:57:50.003Z,4.17
2022-08-11T22:00:56.609Z,4.27
2022-08-11T22:04:04.233Z,5.10
2022-08-11T22:07:11.549Z,4.87
2022-08-11T22:10:41.631Z,4.73
2022-08-11T22:14:05.372Z,6.10
2022-08-11T22:17:10.208Z,6.97
2022-08-11T22:20:17.346Z,7.03
2022-08-11T22:23:25.113Z,8.37
2022-08-11T22:26:42.912Z,7.70
2022-08-11T22:29:53.647Z,8.37
2022-08-11T22:33:00.386Z,7.53
2022-08-11T22:36:08.199Z,6.67
2022-08-11T22:39:16.965Z,7.13
2022-08-11T22:42:33.457Z,5.83
2022-08-11T22:45:40.270Z,5.73
2022-08-11T22:48:49.111Z,5.70
2022-08-11T22:51:57.013Z,6.67
2022-08-11T22:55:05.086Z,5.80
2022-08-11T22:58:15.311Z,5.53
2022-08-11T23:01:22.121Z,4.33
2022-08-11T23:04:30.058Z,4.40
2022-08-11T23:07:49.545Z,3.50
2022-08-11T23:10:57.813Z,3.77
2022-08-11T23:14:04.516Z,3.63
2022-08-11T23:17:11.141Z,3.20
2022-08-11T23:20:33.826Z,3.80
2022-08-11T23:23:46.774Z,3.83
2022-08-11T23:26:54.519Z,3.53
2022-08-11T23:30:01.319Z,5.43
2022-08-11T23:33:12.083Z,4.03
2022-08-11T23:36:35.983Z,3.13
2022-08-11T23:39:45.501Z,3.87
2022-08-11T23:42:56.348Z,3.37
2022-08-11T23:46:03.380Z,3.30
2022-08-11T23:49:14.694Z,3.40
2022-08-11T23:52:21.757Z,2.80
2022-08-11T23:55:28.424Z,3.07
2022-08-11T23:58:34.383Z,3.20
